Date,TemperatureHighF,TemperatureAvgF,TemperatureLowF,DewpointHighF,DewpointAvgF,DewpointLowF,HumidityHigh,HumidityAvg,HumidityLow,PressureMaxIn,PressureMinIn,WindSpeedMaxMPH,WindSpeedAvgMPH,GustSpeedMaxMPH,PrecipitationSumIn
2012-4-10,59,48,40,46,41,39,100,76,56,28.95,28.72,7,3,11,0.34
2012-4-11,61,47,39,43,40,35,100,79,44,29.31,28.95,5,2,6,0.01
2012-4-12,63,43,37,42,38,33,100,84,39,29.47,29.31,7,1,12,0.01
2012-4-13,57,43,35,40,35,25,94,74,32,29.56,29.44,6,1,10,0.00
2012-4-14,56,43,34,35,30,26,82,63,35,29.82,29.55,6,2,8,0.00
2012-4-15,57,43,29,33,27,22,81,56,30,30.02,29.82,4,1,8,0.00
2012-4-16,59,44,30,40,32,25,93,66,31,30.02,29.42,9,3,13,0.04
2012-4-17,58,44,39,45,39,34,97,83,53,29.42,28.84,12,4,20,0.07
2012-4-18,49,40,36,42,38,33,97,90,77,28.84,28.80,4,1,6,0.00
2012-4-19,53,45,38,45,40,35,91,83,70,28.98,28.90,4,2,4,0.05
2012-4-20,60,44,34,45,40,32,96,86,55,29.03,28.92,4,0,4,0.01
2012-4-21,63,47,41,48,42,40,95,83,51,29.20,29.02,3,1,5,0.12
2012-4-22,62,47,37,45,40,36,96,78,46,29.29,29.20,5,2,10,0.01
2012-4-23,60,46,36,48,38,32,93,77,45,29.27,29.17,6,2,9,0.11
2012-4-24,62,46,36,47,38,32,92,76,48,29.27,29.19,7,1,11,0.02
2012-4-25,48,43,39,43,40,36,93,89,80,29.20,28.98,9,4,17,0.34
2012-4-26,53,46,43,44,39,35,89,76,67,29.42,28.98,9,4,11,0.13
2012-4-27,59,49,32,36,31,26,79,52,34,29.66,29.42,4,2,8,0.00
2012-4-28,53,44,33,37,32,27,92,66,44,30.04,29.66,8,3,17,0.00
2012-4-29,52,41,32,38,33,27,92,73,55,30.01,29.67,10,4,16,0.09
2012-4-30,48,44,40,45,42,38,96,92,89,30.02,29.67,8,4,13,0.14
2012-5-1,59,50,44,45,42,38,91,75,51,30.05,29.98,11,5,15,0.00
2012-5-2,56,45,43,44,40,39,87,83,62,30.06,29.93,12,3,12,0.00
2012-5-3,72,51,42,52,43,39,93,77,45,29.93,29.55,4,2,7,0.00
2012-5-4,58,46,34,46,36,24,100,70,37,29.67,29.54,8,2,11,0.04
2012-5-5,60,43,28,34,26,22,81,54,28,29.69,29.64,5,2,8,0.00
2012-5-6,60,44,34,41,34,27,88,70,45,29.71,29.65,5,2,8,0.00
2012-5-7,50,42,35,42,38,32,97,86,66,29.71,29.37,6,2,10,0.17
2012-5-8,61,47,37,49,40,34,100,79,51,29.40,29.29,8,2,11,0.05
2012-5-9,64,49,36,43,38,31,93,69,43,29.53,29.39,6,3,10,0.00
2012-5-10,46,42,40,41,40,39,96,91,76,29.54,29.40,7,4,11,0.64
2012-5-11,53,44,38,46,40,34,97,84,64,30.21,29.54,4,2,8,0.17
2012-5-12,65,51,36,44,39,30,91,64,35,30.33,30.19,9,4,16,0.00
2012-5-13,52,47,44,46,43,39,97,85,73,30.20,29.42,20,12,33,0.32
2012-5-14,58,48,41,46,41,37,93,77,53,29.52,29.41,13,8,19,0.09
2012-5-15,65,49,39,42,35,29,86,61,31,29.91,29.53,4,2,8,0.05
2012-5-16,62,47,35,42,36,30,88,67,39,29.93,29.85,6,3,11,0.01
2012-5-17,53,46,42,46,44,40,100,91,73,29.85,29.64,6,3,8,0.27
2012-5-18,44,42,40,42,41,39,100,95,89,29.70,29.60,9,4,11,0.22
2012-5-19,55,45,36,41,38,32,94,78,54,29.74,29.67,7,3,11,0.00
2012-5-20,64,48,33,44,38,6,97,72,45,29.73,29.62,5,2,8,0.01
2012-5-21,68,53,45,49,44,42,94,74,44,29.72,29.61,6,3,11,0.00
2012-5-22,75,55,47,57,49,45,100,83,49,29.94,29.71,8,2,9,0.00
2012-5-23,82,64,46,63,54,45,95,72,47,30.11,29.93,4,2,7,0.00
2012-5-24,84,69,52,65,58,50,92,69,49,30.17,30.10,6,2,9,0.00
2012-5-25,75,62,54,58,54,50,100,79,53,30.19,30.11,7,3,13,0.00
2012-5-26,77,64,49,53,49,44,94,61,39,30.15,30.02,10,4,17,0.01
2012-5-27,80,65,52,56,53,48,100,68,40,30.03,29.89,6,3,11,0.00
2012-5-28,90,66,49,61,53,46,95,67,32,29.90,29.80,8,3,13,0.00
2012-5-29,68,58,50,57,53,50,100,84,65,29.84,29.73,5,2,8,0.01
2012-5-30,57,53,49,54,51,48,100,95,86,29.79,29.76,3,2,6,0.01
2012-5-31,66,55,48,57,53,48,100,94,68,29.82,29.71,5,2,11,0.47
2012-6-1,72,56,47,52,47,44,100,75,42,29.89,29.80,4,2,7,0.01
2012-6-2,58,50,44,44,41,36,92,71,54,29.83,29.68,8,4,14,0.00
2012-6-3,57,48,41,42,39,37,93,73,54,29.74,29.62,7,3,11,0.00
2012-6-4,75,55,38,48,41,36,100,63,30,29.78,29.73,4,2,7,0.01
2012-6-5,74,54,41,50,44,39,97,73,34,29.73,29.38,5,2,8,0.07
2012-6-6,62,54,50,57,52,49,100,93,78,29.38,29.17,3,1,4,0.17
2012-6-7,62,53,46,55,51,45,100,93,74,29.24,29.02,7,3,18,0.07
2012-6-8,57,54,50,54,52,49,100,95,85,29.21,28.90,8,4,15,0.39
2012-6-9,75,58,46,57,51,45,100,80,47,29.52,29.21,5,2,8,0.02
2012-6-10,58,54,50,53,50,47,95,88,80,29.53,29.50,4,2,8,0.01
2012-6-11,60,52,46,50,47,43,100,84,63,29.58,29.50,6,2,10,0.14
2012-6-12,66,54,47,49,45,42,96,71,47,29.71,29.58,6,2,9,0.00
2012-6-13,66,55,46,50,44,42,94,69,45,29.81,29.70,4,2,8,0.01
2012-6-14,64,54,47,48,45,42,85,72,55,29.83,29.72,9,4,15,0.00
2012-6-15,52,48,47,49,46,42,100,92,78,29.72,29.33,9,6,15,0.34
2012-6-16,50,49,48,50,49,47,100,99,99,29.37,29.25,7,4,11,0.79
2012-6-17,58,51,44,53,48,42,100,90,74,29.74,29.37,5,2,7,0.26
2012-6-18,73,57,38,50,44,37,100,66,32,29.74,29.70,7,2,10,0.00
2012-6-19,72,59,48,53,47,44,87,65,43,29.81,29.68,7,3,12,0.00
2012-6-20,73,58,44,53,48,42,97,74,41,29.83,29.75,9,2,14,0.00
2012-6-21,55,52,51,54,51,50,100,95,92,29.93,29.71,5,2,8,0.48
2012-6-22,65,55,52,60,54,51,100,96,74,29.90,29.69,5,2,8,1.62
2012-6-23,54,52,51,53,52,51,100,99,97,30.08,29.90,10,6,12,0.39
2012-6-24,72,59,52,56,52,48,100,80,54,30.17,30.00,9,3,9,0.12
2012-6-25,75,61,49,54,50,48,97,71,46,30.38,30.17,8,3,8,0.00
2012-6-26,72,59,47,58,53,46,100,82,52,30.40,30.25,5,2,5,0.35
2012-6-27,60,57,54,59,56,53,100,97,92,30.25,30.15,3,1,4,0.27
2012-6-28,69,59,55,65,57,54,100,93,77,30.16,29.67,8,3,16,0.28
2012-6-29,67,58,55,60,56,53,100,93,72,29.70,29.55,10,5,14,0.66
2012-6-30,68,57,52,57,52,47,100,86,65,29.91,29.71,9,5,15,0.15
2012-7-1,67,57,51,58,50,46,100,81,61,30.14,29.90,7,2,11,0.04
2012-7-2,62,56,51,60,54,48,100,96,88,30.14,30.09,3,1,5,0.44
2012-7-3,68,61,56,60,57,55,99,87,66,30.14,30.07,6,2,9,0.06
2012-7-4,73,63,58,66,60,57,100,92,70,30.15,30.02,5,1,11,0.34
2012-7-5,71,62,57,63,59,57,100,91,74,30.25,30.14,7,3,11,0.00
2012-7-6,72,62,57,62,58,54,100,86,62,30.25,30.18,9,4,17,0.04
2012-7-7,62,57,53,58,55,52,97,93,81,30.20,30.14,5,3,9,0.44
2012-7-8,53,52,52,52,52,51,100,100,97,30.17,30.16,2,1,4,0.01
2012-7-9,61,56,53,57,54,52,100,93,79,29.97,29.69,4,1,6,0.41
2012-7-10,60,54,51,54,51,50,97,91,73,29.97,29.87,3,1,5,0.41
2012-7-11,60,53,50,53,51,49,100,93,74,29.91,29.83,3,1,4,0.58
2012-7-12,69,56,48,56,50,46,100,82,58,29.91,29.83,4,2,5,0.01
2012-7-13,62,54,48,50,48,46,95,82,62,29.84,29.72,5,2,9,0.00
2012-7-14,72,56,50,53,49,42,96,78,48,29.89,29.74,4,1,7,0.07
2012-7-15,62,54,47,52,47,43,87,77,63,30.04,29.88,9,5,15,0.04
2012-7-16,69,57,47,56,50,44,93,79,63,30.11,29.98,5,2,8,0.00
2012-7-17,70,58,46,55,50,44,94,77,55,30.18,29.99,6,2,8,0.01
2012-7-18,61,56,52,57,53,50,97,92,78,29.99,29.73,6,2,11,0.32
2012-7-19,72,58,48,55,48,44,97,74,43,30.04,29.81,4,1,6,0.00
2012-7-20,70,57,47,52,48,45,93,72,48,30.24,30.04,3,1,6,0.00
2012-7-21,70,53,45,52,45,42,91,77,51,30.28,30.24,5,3,8,0.00
2012-7-22,68,62,53,60,56,49,90,83,64,30.29,30.01,19,9,19,0.00
2012-7-23,63,60,55,60,58,1,95,93,88,30.12,30.02,15,4,17,0.01
2012-7-24,75,62,54,58,54,49,96,76,54,30.18,30.10,4,2,7,0.00
2012-7-25,82,65,51,58,53,50,94,68,39,30.29,30.16,5,2,7,0.00
2012-7-26,66,59,50,57,52,46,96,80,59,30.29,30.09,6,2,9,0.00
2012-7-27,68,58,50,55,49,46,87,73,53,30.09,29.88,12,5,16,0.00
2012-7-28,68,56,51,56,51,48,96,85,62,29.88,29.72,7,4,13,0.25
2012-7-29,65,56,50,54,50,47,93,82,59,29.88,29.74,8,4,14,0.25
2012-7-30,72,57,49,54,48,45,95,74,47,29.99,29.86,6,3,9,0.13
2012-7-31,74,59,42,53,48,41,97,68,37,29.99,29.85,6,2,12,0.09
2012-8-1,69,61,54,60,56,52,100,86,71,29.85,29.61,8,3,14,0.17
2012-8-2,76,60,48,58,52,47,100,78,46,29.86,29.69,6,2,9,0.00
2012-8-3,71,60,46,58,52,45,100,79,57,29.92,29.85,5,1,9,0.01
2012-8-4,78,63,53,58,55,52,96,77,43,29.91,29.85,4,2,9,0.00
2012-8-5,64,59,55,57,55,41,95,88,56,29.87,29.78,36,2,50,0.17
2012-8-6,72,60,54,59,55,51,97,84,62,29.96,29.77,6,2,8,0.01
2012-8-7,77,62,49,55,51,48,96,71,45,30.23,29.96,7,4,11,0.00
2012-8-8,82,67,45,57,52,44,97,61,37,30.35,30.22,6,2,8,0.00
2012-8-9,79,60,46,56,51,45,97,74,43,30.44,30.35,6,2,11,0.00
2012-8-10,79,63,49,59,53,47,94,73,47,30.47,30.41,5,2,9,0.00
2012-8-11,72,60,50,56,53,49,97,79,55,30.42,30.15,6,2,11,0.02
2012-8-12,75,62,55,59,55,52,95,79,50,30.15,29.93,7,3,11,0.00
2012-8-13,74,63,58,62,58,55,95,84,61,29.94,29.81,7,2,10,0.02
2012-8-14,76,64,53,64,58,51,95,83,57,29.99,29.84,5,1,8,0.11
2012-8-15,74,61,53,62,57,52,97,88,67,29.99,29.64,9,3,19,0.19
2012-8-16,72,62,52,62,55,51,97,80,59,29.98,29.68,10,4,14,0.11
2012-8-17,70,62,57,64,59,55,96,89,76,29.97,29.76,5,2,8,0.47
2012-8-18,76,65,56,64,59,-33,95,82,54,30.09,29.82,11,3,16,0.06
2012-8-19,80,62,52,60,56,50,96,81,50,30.12,30.06,4,1,7,0.04
2012-8-20,74,62,51,61,56,50,97,81,56,30.13,30.06,8,3,15,0.04
2012-8-21,76,59,54,62,56,52,96,89,59,30.13,29.87,6,2,9,0.21
2012-8-22,71,59,54,58,54,52,95,84,55,29.94,28.39,8,4,17,0.24
2012-8-23,73,58,53,60,53,13,94,83,54,29.94,29.82,8,4,13,0.15
2012-8-24,69,59,53,57,53,51,93,82,59,29.82,29.65,5,2,8,0.12
2012-8-25,72,57,53,56,53,51,94,86,54,29.89,29.63,4,1,8,0.60
2012-8-26,64,54,50,52,49,45,96,82,53,30.06,29.89,5,2,8,0.20
2012-8-27,61,55,49,57,53,46,93,90,84,30.02,29.54,11,3,16,0.37
2012-8-28,68,60,53,55,51,46,91,74,48,29.81,29.59,13,8,24,0.00
2012-8-29,60,53,47,54,50,45,94,89,82,29.83,29.69,6,2,8,0.46
2012-8-30,71,55,44,48,44,39,96,71,34,30.42,29.83,4,1,6,0.01
2012-8-31,57,50,39,56,47,37,96,88,65,30.44,30.26,7,3,13,0.15
2012-9-1,66,59,57,57,55,52,96,88,66,30.27,30.02,13,7,21,0.15
2012-9-2,69,60,52,58,53,50,95,80,58,30.34,30.06,8,4,12,0.01
2012-9-3,75,62,57,60,55,52,92,78,56,30.33,30.12,12,6,18,0.15
2012-9-4,70,60,53,60,49,45,92,69,45,30.33,30.12,10,6,17,0.01
2012-9-5,74,58,49,53,47,45,88,71,42,30.47,30.33,7,3,11,0.00
2012-9-6,64,55,48,56,51,44,93,86,63,30.45,30.09,14,6,24,0.27
2012-9-7,64,60,58,58,57,56,94,89,79,30.22,30.12,8,5,14,0.12
2012-9-8,66,61,53,57,55,48,92,81,66,30.21,29.98,8,4,12,0.00
2012-9-9,64,56,44,57,51,42,93,84,68,29.99,29.56,9,3,12,0.02
2012-9-10,60,55,46,57,50,44,93,85,68,29.71,29.57,8,3,12,0.07
2012-9-11,60,50,44,49,44,41,95,81,56,29.86,29.69,8,4,16,0.06
2012-9-12,69,53,43,49,43,38,92,72,38,30.10,29.80,6,3,9,0.00
2012-9-13,59,52,43,54,47,38,91,85,77,30.12,29.59,16,8,25,0.00
2012-9-14,64,54,50,50,47,46,90,77,57,29.97,29.57,13,6,20,0.00
2012-9-15,62,55,51,51,47,44,89,75,60,29.98,29.83,14,7,19,0.00
2012-9-16,59,54,47,54,49,43,90,83,65,29.83,29.65,14,7,21,0.00
2012-9-17,58,50,45,50,46,42,91,83,67,29.73,29.63,15,6,24,0.00
2012-9-18,66,50,43,45,41,38,92,73,41,30.05,29.67,7,4,13,0.00
2012-9-19,64,50,40,45,41,37,91,74,48,30.14,30.04,8,3,10,0.00
2012-9-20,52,47,44,47,44,40,93,89,84,30.12,29.99,3,1,7,0.00
2012-9-21,63,47,37,48,40,34,95,77,44,30.20,30.07,4,1,6,0.00
2012-9-22,66,47,32,46,37,29,93,72,42,30.25,30.17,5,1,8,0.25
2012-9-23,61,48,35,46,38,32,91,72,44,30.17,29.80,6,2,10,0.00
2012-9-24,51,48,44,46,44,40,89,85,77,29.79,29.26,10,5,16,0.25
2012-9-25,54,50,48,49,45,40,89,82,68,29.33,29.02,10,7,17,0.17
2012-9-26,67,52,45,50,46,42,91,81,55,29.71,29.33,8,2,11,0.35
2012-9-27,60,51,45,50,45,42,92,81,57,29.78,29.69,9,3,14,0.04
2012-9-28,59,50,46,49,44,40,90,80,56,29.73,29.65,11,6,20,0.13
2012-9-29,62,52,47,47,43,40,87,74,53,30.01,29.72,9,6,14,0.05
2012-9-30,62,54,50,53,49,45,89,82,57,29.90,29.69,13,8,23,0.73
2012-10-1,59,52,46,48,46,-6,90,79,59,29.71,29.56,13,7,17,0.31
2012-10-2,56,50,46,49,45,42,89,83,67,29.63,29.36,10,5,14,0.11
2012-10-3,60,47,42,49,42,38,91,81,60,29.60,29.36,9,4,13,0.05
2012-10-4,58,46,35,48,40,32,92,82,64,29.71,29.59,8,2,13,0.07
2012-10-5,61,48,41,47,41,38,91,77,50,29.79,29.54,6,2,9,0.06
2012-10-6,67,48,37,48,40,34,92,76,46,30.14,29.78,5,2,8,0.00
2012-10-7,64,46,34,43,37,30,90,73,42,30.27,30.13,5,2,8,0.00
2012-10-8,62,46,34,44,37,30,90,73,50,30.21,30.06,6,1,8,0.00
2012-10-9,68,44,31,45,33,27,89,69,33,30.17,30.10,3,1,6,0.00
2012-10-10,64,42,31,44,35,28,90,76,48,30.11,29.84,11,1,16,0.00
2012-10-11,57,49,45,51,46,40,93,88,76,29.85,29.58,4,1,8,0.56
2012-10-12,54,48,46,47,44,40,94,85,73,29.59,29.51,8,4,15,0.31
2012-10-13,50,47,44,44,42,40,88,82,74,29.66,29.58,9,4,13,0.05
2012-10-14,57,46,42,50,42,39,92,87,65,29.75,29.64,5,1,6,0.08
2012-10-15,58,42,34,44,35,-66,93,77,44,29.70,29.46,9,1,97,0.01
2012-10-16,51,40,34,43,37,30,93,86,68,29.56,29.31,5,2,7,0.39
2012-10-17,47,41,32,44,38,29,95,91,87,29.56,29.34,6,2,9,0.63
2012-10-18,51,48,44,49,45,-7,94,91,86,29.73,29.45,4,2,10,0.13
2012-10-19,49,47,45,47,45,43,93,91,90,29.85,29.73,4,2,10,0.25
2012-10-20,97,49,44,52,45,31,93,87,64,30.11,29.82,6,1,22,0.04
2012-10-21,72,50,41,54,44,38,93,83,50,30.31,30.10,2,0,5,0.00
2012-10-22,49,45,40,46,42,38,94,91,87,30.45,30.31,5,2,10,0.01
2012-10-23,52,49,47,50,47,44,93,91,88,30.48,30.42,3,2,5,0.05
2012-10-24,99,48,40,48,44,37,92,86,65,30.46,30.32,4,1,8,0.02
2012-10-25,59,45,34,44,38,27,92,79,51,30.33,30.23,6,1,8,0.00
2012-10-26,56,38,31,32,26,-8,80,64,31,30.33,30.15,6,1,9,0.00
2012-10-27,54,39,28,41,30,23,92,72,42,30.31,29.99,9,3,14,0.09
2012-10-28,48,46,39,45,43,37,93,89,86,29.99,29.61,9,4,17,0.20
2012-10-29,53,41,35,49,37,32,94,86,73,29.85,29.70,6,1,8,0.01
2012-10-30,48,45,40,44,41,36,90,87,82,29.75,29.08,16,7,24,0.15
2012-10-31,47,42,33,42,38,30,91,88,64,29.09,28.86,16,4,25,0.40
2012-11-1,48,38,32,41,34,29,93,85,67,28.87,28.74,9,2,15,0.15
2012-11-2,58,43,34,47,36,30,90,79,50,29.28,28.74,14,5,25,0.20
2012-11-3,49,39,32,36,32,28,86,76,54,29.34,29.24,9,3,14,0.00
2012-11-4,51,39,33,40,34,28,90,82,63,29.71,29.33,5,1,9,0.00
2012-11-5,57,39,31,42,33,28,92,79,54,30.05,29.70,4,2,6,0.00
2012-11-6,53,47,36,47,42,31,92,84,77,30.13,29.95,9,5,14,0.04
2012-11-7,50,48,47,46,44,41,90,86,78,30.11,29.88,24,9,24,0.22
2012-11-8,54,48,45,44,42,40,89,81,62,30.00,29.77,11,6,21,0.02
2012-11-9,49,46,43,45,42,38,90,84,76,29.77,29.39,14,8,23,0.28
2012-11-10,48,42,36,41,38,32,93,85,73,29.57,29.32,10,4,14,0.09
2012-11-11,48,40,36,40,36,32,93,85,72,30.05,29.57,5,2,8,0.02
2012-11-12,54,44,35,51,40,31,91,89,84,30.04,29.90,14,2,14,0.12
2012-11-13,56,53,47,51,49,44,90,84,75,30.17,29.98,16,7,27,0.28
2012-11-14,48,47,42,46,44,39,93,91,89,30.31,30.16,4,1,6,0.18
2012-11-15,50,45,39,48,42,37,94,92,87,30.30,30.00,9,2,15,0.08
2012-11-16,47,44,42,44,40,38,91,86,76,30.01,29.74,9,4,14,0.06
2012-11-17,48,41,35,42,37,31,92,86,68,29.76,29.66,10,4,17,0.11
2012-11-18,48,39,33,42,35,29,92,85,75,29.87,29.68,7,3,13,0.06
2012-11-19,54,49,40,48,44,36,89,84,77,29.69,29.33,19,10,30,0.57
2012-11-20,56,50,45,50,44,38,86,78,65,29.63,29.40,18,7,24,0.04
2012-11-21,55,44,38,44,38,34,88,82,64,29.77,29.62,10,3,18,0.01
2012-11-22,51,45,41,46,41,37,88,85,77,29.67,29.33,16,7,24,0.80
2012-11-23,49,41,34,39,36,-15,88,82,67,29.90,29.36,12,6,20,0.26
2012-11-24,42,35,32,37,32,29,88,86,83,30.00,29.71,4,1,6,0.04
2012-11-25,42,38,33,39,36,29,92,90,86,29.71,29.52,3,1,6,0.28
2012-11-26,45,40,34,37,34,-14,91,81,10,29.91,29.70,3,1,5,0.01
2012-11-27,46,40,34,36,32,27,85,75,65,30.16,29.90,3,1,7,0.00
2012-11-28,53,36,29,38,27,24,84,72,47,30.19,30.15,3,1,4,0.00
2012-11-29,41,30,25,34,26,20,86,82,66,30.16,29.91,4,1,4,0.00
2012-11-30,41,32,26,35,28,21,88,83,67,29.96,29.87,3,1,4,0.13
2012-12-1,49,34,30,37,28,24,89,79,54,30.06,29.92,4,1,7,0.01
2012-12-2,48,31,27,41,26,22,89,82,66,30.04,29.50,4,1,7,0.00
2012-12-3,42,35,32,38,31,28,92,87,82,29.70,29.42,6,2,9,0.07
2012-12-4,43,34,29,41,30,25,93,89,86,29.69,29.41,4,1,5,0.04
2012-12-5,42,29,24,33,23,18,89,77,58,29.93,29.68,2,0,3,0.04
2012-12-6,38,33,24,36,28,18,92,82,68,29.89,29.20,14,2,14,0.43
2012-12-7,44,38,31,35,31,26,86,77,67,30.07,29.31,4,2,8,0.02
2012-12-8,47,42,31,45,38,28,93,88,81,30.13,29.90,9,5,14,0.13
2012-12-9,50,42,36,42,34,28,88,73,55,30.13,29.83,10,4,19,0.01
2012-12-10,46,35,26,34,26,22,85,72,60,30.43,30.13,4,1,5,0.00
2012-12-11,34,26,22,30,21,18,86,82,75,30.43,30.19,3,0,5,0.00
2012-12-12,34,30,26,30,26,-22,88,85,81,30.19,29.78,4,1,4,0.00
2012-12-13,34,31,27,30,27,20,88,87,76,29.79,29.42,3,0,4,0.00
2012-12-14,41,35,26,39,31,20,93,85,76,29.42,28.61,6,3,9,0.26
2012-12-15,45,42,38,41,40,36,95,90,85,29.17,28.64,10,6,17,0.04
2012-12-16,48,43,38,41,38,35,90,84,77,29.31,29.17,8,3,13,0.00
2012-12-17,42,40,39,40,38,36,93,92,90,29.69,29.27,2,1,4,0.04
2012-12-18,47,41,39,44,39,36,94,92,88,30.07,29.72,2,0,4,0.00
2012-12-19,43,41,39,38,37,35,92,84,75,30.04,29.79,8,3,14,0.24
2012-12-20,42,40,39,38,37,36,91,88,84,29.80,29.52,8,4,14,0.76
2012-12-21,41,40,39,39,38,37,92,91,91,29.83,29.58,4,2,8,0.26
2012-12-22,44,42,39,42,39,37,92,91,89,29.78,29.16,5,2,8,0.58
2012-12-23,50,46,43,48,42,39,93,86,80,29.41,28.87,14,7,18,0.44
2012-12-24,46,43,41,42,40,37,90,87,85,29.41,29.14,10,4,15,0.12
2012-12-25,46,41,38,41,37,35,91,87,78,29.28,29.06,8,3,11,0.06
2012-12-26,42,39,34,39,36,31,92,88,84,29.42,29.24,10,3,16,0.50
2012-12-27,38,35,34,34,30,28,88,83,74,29.87,29.28,7,3,14,0.06
2012-12-28,54,47,38,48,43,34,91,84,78,29.83,29.18,20,11,30,0.34
2012-12-29,53,45,39,48,39,33,87,80,73,29.19,29.13,18,9,28,0.19
2012-12-30,50,40,34,46,36,29,92,85,76,29.31,29.17,16,9,25,0.54
2012-12-31,51,45,35,46,39,31,88,82,75,29.26,28.94,22,10,30,0.15
2013-1-1,47,40,36,39,35,31,89,83,71,29.88,29.26,8,4,15,0.06